MYGF

Details ICAO MYGF (FPO)
Name Grand Bahama Intl
Region Bahamas
Timezone America/Nassau (UTC-4.0)
Plans Departing 145
Arriving 247
Stats Elevation 7 ft / 2 m (AMSL)
Location 26.558684° -78.695553°
Runways 1
Magnetic Variation 7.764° W
Sunrise 2018-05-26 10:24:36 UTC / 2018-05-26 06:24:36 Local
Sunset 2018-05-27 00:01:58 UTC / 2018-05-26 20:01:58 Local
Advertisement - Login to hide

Runways

ID Width Length Bearing (true) Bearing (mag) Surface Threshold Offset Overrun Length
06 151 ft / 46 m 11,016 ft / 3,358 m 60.89° 68.65° Asphalt 0 ft / 0 m 194 ft / 59 m
24 151 ft / 46 m 11,016 ft / 3,358 m 240.91° 248.67° Asphalt 0 ft / 0 m 200 ft / 61 m

Approach Navaids

Runway Type Ident Frequency Range Bearing (true) Bearing (mag) Slope Elevation
06 Localiser IZFP 109.70 MHz 18 nm / 33 km 60.91° 68.67° - 7 ft / 2 m (AMSL)
06 Glidescope IZFP 109.70 MHz 10 nm / 19 km 60.90° 68.67° 3.00° 7 ft / 2 m (AMSL)

Map

Weather


0- 5 10 15 20 25 30 35+ Temperature / ° C

Clouds and Precipitation
Forecast for 2018-05-26 18:00 UTC. Updated 26 minutes ago

Ground ~20,000 ft ~40,000 ft Winds

METAR

MYGF 261700Z 00000KT 9000 -RA FEW013CB SCT018 OVC080 25/23 A2998 RMK CB SW TCU S/SW-W

TAF

Not found

Frequencies

Ground 121.70 MHz GND
Approach 126.50 MHz APP
Tower 118.50 MHz TWR
Warning: Do not use this data for real-world aviation or navigation. No guarantee of current accuracy is given.